EST,Max TemperatureF,Mean TemperatureF,Min TemperatureF,Max Dew PointF,MeanDew PointF,Min DewpointF,Max Humidity, Mean Humidity, Min Humidity, Max Sea Level PressureIn, Mean Sea Level PressureIn, Min Sea Level PressureIn, Max VisibilityMiles, Mean VisibilityMiles, Min VisibilityMiles, Max Wind SpeedMPH, Mean Wind SpeedMPH, Max Gust SpeedMPH,PrecipitationIn, CloudCover, Events, WindDirDegrees
2014-1-1,42,32,23,22,18,14,77,60,39,30.28,30.20,30.06,10,10,10,8,1,,0.00,0,,166
2014-1-2,41,29,15,37,25,8,95,78,56,30.05,29.78,29.60,10,7,1,31,3,45,0.01,6,Rain-Snow,303
2014-1-3,19,13,7,6,0,-4,72,58,36,30.27,30.08,29.71,10,8,2,34,15,60,0.00,3,Snow,317
2014-1-4,37,23,10,35,10,0,92,58,28,30.28,30.22,30.14,10,10,10,8,3,,0.00,1,,149
2014-1-5,42,38,36,41,38,35,97,96,92,30.13,29.95,29.64,10,2,0,12,4,26,0.00,8,Fog-Rain,154
2014-1-6,45,20,-4,44,11,-15,97,72,59,29.95,29.77,29.57,10,4,0,30,16,47,0.00,8,Rain-Snow,282
2014-1-7,12,2,-6,-4,-12,-18,63,52,37,30.25,30.14,29.95,10,9,3,23,12,36,0.00,2,,279
2014-1-8,40,24,8,11,2,-14,52,37,23,30.40,30.34,30.24,10,10,10,10,1,,0.00,0,,250
2014-1-9,42,33,24,22,10,2,64,42,20,30.45,30.40,30.36,10,10,10,7,2,,0.00,2,,144
2014-1-10,45,38,32,44,36,21,99,92,58,30.38,30.23,30.05,10,2,0,7,1,,0.16,8,Fog-Rain-Snow,148
2014-1-11,52,46,38,50,40,28,97,79,47,30.04,29.75,29.59,10,6,0,25,7,39,0.70,6,Fog-Rain,221
2014-1-12,46,40,33,26,21,11,70,51,26,30.11,29.96,29.70,10,10,10,37,19,58,0.00,1,,282
2014-1-13,46,40,34,36,28,23,90,64,46,30.09,29.99,29.88,10,10,10,8,2,17,0.00,3,Rain,154
2014-1-14,43,38,33,40,31,25,97,75,48,29.93,29.83,29.75,10,8,0,25,6,37,0.01,4,Rain,272
2014-1-15,39,31,23,28,23,15,92,68,47,29.90,29.87,29.83,10,9,1,15,5,22,0.00,5,Snow,297
2014-1-16,36,26,16,14,9,-4,74,52,18,29.90,29.85,29.79,10,10,10,14,6,20,0.00,1,,274
2014-1-17,43,32,23,24,16,4,76,52,20,29.86,29.80,29.72,10,10,2,25,6,37,0.00,4,Snow,248
2014-1-18,33,22,12,14,8,-2,79,58,43,29.91,29.84,29.78,10,8,1,24,13,34,0.00,5,Snow,281
2014-1-19,35,32,30,24,18,12,77,55,39,29.90,29.84,29.78,10,10,5,25,12,37,0.00,5,Snow,268
2014-1-20,50,41,33,18,13,-1,49,32,18,29.84,29.82,29.78,10,10,10,32,16,51,0.00,0,,269
2014-1-21,44,29,13,31,20,7,92,62,39,29.79,29.64,29.52,10,7,0,31,8,45,0.04,6,Snow,282
2014-1-22,19,12,4,6,-4,-13,74,49,24,29.89,29.81,29.72,10,9,2,23,12,33,0.00,4,Snow,292
2014-1-23,19,10,1,7,0,-10,66,56,38,30.25,30.06,29.87,10,9,3,26,16,36,0.00,6,Snow,287
2014-1-24,21,8,-4,-8,-12,-16,68,44,22,30.34,30.21,29.97,10,10,10,20,8,29,0.00,0,,293
2014-1-25,30,20,9,19,5,-29,79,51,7,29.96,29.66,29.51,10,7,0,41,12,60,0.00,5,Snow,261
2014-1-26,47,33,19,18,3,-22,56,31,7,29.80,29.74,29.63,10,10,10,41,16,56,0.00,0,,247
2014-1-27,47,32,16,32,20,-9,73,55,30,30.00,29.83,29.74,10,10,10,29,11,44,0.00,3,,286
2014-1-28,16,14,11,11,4,-8,86,66,36,30.09,30.03,29.99,10,6,1,18,7,26,0.00,7,Snow,349
2014-1-29,20,12,3,6,-8,-19,75,43,22,30.16,30.07,29.97,10,10,5,18,6,28,0.00,1,Snow,306
2014-1-30,30,16,2,7,-1,-10,67,49,31,30.18,30.13,30.06,10,10,10,9,2,,0.00,0,,147
2014-1-31,51,34,19,11,1,-13,55,25,10,30.15,30.08,30.03,10,10,10,14,3,20,0.00,0,,261